createdAt,value
2017-10-23T00:02:12.563Z,100769
2017-10-23T00:04:41.660Z,100763
2017-10-23T00:07:11.864Z,100767
2017-10-23T00:09:40.958Z,100766
2017-10-23T00:12:10.112Z,100772
2017-10-23T00:14:39.455Z,100768
2017-10-23T00:17:08.638Z,100769
2017-10-23T00:19:37.949Z,100771
2017-10-23T00:22:07.613Z,100769
2017-10-23T00:24:36.785Z,100771
2017-10-23T00:27:05.888Z,100770
2017-10-23T00:29:35.125Z,100773
2017-10-23T00:32:04.322Z,100768
2017-10-23T00:34:33.478Z,100770
2017-10-23T00:37:03.091Z,100769
2017-10-23T00:39:32.261Z,100771
2017-10-23T00:42:01.465Z,100769
2017-10-23T00:44:30.668Z,100766
2017-10-23T00:46:59.887Z,100767
2017-10-23T00:49:29.147Z,100764
2017-10-23T00:51:58.377Z,100768
2017-10-23T00:54:28.335Z,100765
2017-10-23T00:56:57.548Z,100761
2017-10-23T00:59:26.755Z,100764
2017-10-23T01:01:55.861Z,100767
2017-10-23T01:04:25.721Z,100765
2017-10-23T01:06:55.110Z,100762
2017-10-23T01:09:24.214Z,100762
2017-10-23T01:11:53.331Z,100759
2017-10-23T01:14:22.575Z,100760
2017-10-23T01:16:51.689Z,100764
2017-10-23T01:19:20.830Z,100758
2017-10-23T01:21:50.773Z,100760
2017-10-23T01:24:20.709Z,100764
2017-10-23T01:26:49.925Z,100763
2017-10-23T01:29:19.034Z,100761
2017-10-23T01:31:48.154Z,100757
2017-10-23T01:34:17.349Z,100758
2017-10-23T01:36:47.388Z,100750
2017-10-23T01:39:16.597Z,100749
2017-10-23T01:41:45.905Z,100745
2017-10-23T01:44:15.097Z,100755
2017-10-23T01:46:45.006Z,100748
2017-10-23T01:49:14.151Z,100747
2017-10-23T01:51:44.081Z,100755
2017-10-23T01:54:13.175Z,100754
2017-10-23T01:56:43.116Z,100753
2017-10-23T01:59:12.944Z,100754
2017-10-23T02:01:42.242Z,100759
2017-10-23T02:04:12.119Z,100751
2017-10-23T02:06:41.288Z,100747
2017-10-23T02:09:11.050Z,100746
2017-10-23T02:11:40.232Z,100750
2017-10-23T02:14:09.797Z,100744
2017-10-23T02:16:38.949Z,100755
2017-10-23T02:19:08.889Z,100758
2017-10-23T02:21:38.401Z,100751
2017-10-23T02:24:07.548Z,100751
2017-10-23T02:26:36.651Z,100750
2017-10-23T02:29:06.651Z,100755
2017-10-23T02:31:35.901Z,100755
2017-10-23T02:34:05.175Z,100758
2017-10-23T02:36:34.367Z,100750
2017-10-23T02:39:04.318Z,100749
2017-10-23T02:41:33.512Z,100744
2017-10-23T02:44:03.700Z,100743
2017-10-23T02:46:33.629Z,100748
2017-10-23T02:49:03.600Z,100751
2017-10-23T02:51:33.545Z,100752
2017-10-23T02:54:02.733Z,100752
2017-10-23T02:56:32.695Z,100754
2017-10-23T02:59:02.923Z,100755
2017-10-23T03:01:32.126Z,100752
2017-10-23T03:04:01.293Z,100757
2017-10-23T03:06:31.674Z,100760
2017-10-23T03:09:00.899Z,100755
2017-10-23T03:11:30.075Z,100755
2017-10-23T03:14:00.161Z,100748
2017-10-23T03:16:29.360Z,100750
2017-10-23T03:18:58.537Z,100749
2017-10-23T03:21:29.147Z,100752
2017-10-23T03:23:58.413Z,100748
2017-10-23T03:26:27.531Z,100750
2017-10-23T03:28:57.008Z,100753
2017-10-23T03:31:26.991Z,100750
2017-10-23T03:33:56.169Z,100760
2017-10-23T03:36:25.433Z,100751
2017-10-23T03:38:54.698Z,100753
2017-10-23T03:41:23.834Z,100751
2017-10-23T03:43:52.994Z,100748
2017-10-23T03:46:23.241Z,100748
2017-10-23T03:48:52.417Z,100747
2017-10-23T03:51:22.714Z,100750
2017-10-23T03:53:52.627Z,100755
2017-10-23T03:56:22.069Z,100757
2017-10-23T03:58:52.167Z,100762
2017-10-23T04:01:21.586Z,100760
2017-10-23T04:03:50.822Z,100760
2017-10-23T04:06:21.119Z,100761
2017-10-23T04:08:51.496Z,100759
2017-10-23T04:11:21.765Z,100759
2017-10-23T04:13:51.088Z,100760
2017-10-23T04:16:20.845Z,100759
2017-10-23T04:18:50.012Z,100766
2017-10-23T04:21:19.129Z,100770
2017-10-23T04:23:48.306Z,100770
2017-10-23T04:26:17.586Z,100772
2017-10-23T04:28:46.708Z,100769
2017-10-23T04:31:15.907Z,100775
2017-10-23T04:33:45.332Z,100773
2017-10-23T04:36:15.645Z,100775
2017-10-23T04:38:45.575Z,100769
2017-10-23T04:41:15.874Z,100772
2017-10-23T04:43:45.082Z,100773
2017-10-23T04:46:14.249Z,100777
2017-10-23T04:48:43.475Z,100778
2017-10-23T04:51:12.792Z,100774
2017-10-23T04:53:42.024Z,100777
2017-10-23T04:56:11.999Z,100776
2017-10-23T04:58:41.938Z,100776
2017-10-23T05:01:11.456Z,100776
2017-10-23T05:03:41.383Z,100779
2017-10-23T05:06:10.598Z,100772
2017-10-23T05:08:39.750Z,100770
2017-10-23T05:11:09.189Z,100775
2017-10-23T05:13:38.440Z,100772
2017-10-23T05:16:08.364Z,100775
2017-10-23T05:18:38.391Z,100777
2017-10-23T05:21:07.605Z,100777
2017-10-23T05:23:36.920Z,100773
2017-10-23T05:26:07.617Z,100776
2017-10-23T05:28:36.815Z,100781
2017-10-23T05:31:06.067Z,100784
2017-10-23T05:33:36.034Z,100778
2017-10-23T05:36:05.311Z,100785
2017-10-23T05:38:35.410Z,100788
2017-10-23T05:41:04.835Z,100792
2017-10-23T05:43:34.527Z,100794
2017-10-23T05:46:03.959Z,100791
2017-10-23T05:48:33.393Z,100795
2017-10-23T05:51:02.752Z,100802
2017-10-23T05:53:32.118Z,100801
2017-10-23T05:56:01.908Z,100803
2017-10-23T05:58:31.306Z,100806
2017-10-23T06:01:00.600Z,100814
2017-10-23T06:03:32.337Z,100816
2017-10-23T06:06:01.616Z,100818
2017-10-23T06:08:30.995Z,100813
2017-10-23T06:11:01.012Z,100816
2017-10-23T06:13:30.727Z,100824
2017-10-23T06:16:00.186Z,100825
2017-10-23T06:18:30.265Z,100821
2017-10-23T06:21:00.572Z,100827
2017-10-23T06:23:30.675Z,100824
2017-10-23T06:26:00.392Z,100825
2017-10-23T06:28:29.737Z,100831
2017-10-23T06:30:58.945Z,100832
2017-10-23T06:33:28.298Z,100834
2017-10-23T06:35:58.281Z,100831
2017-10-23T06:38:28.221Z,100834
2017-10-23T06:40:57.729Z,100831
2017-10-23T06:43:27.757Z,100833
2017-10-23T06:45:56.902Z,100836
2017-10-23T06:48:27.013Z,100843
2017-10-23T06:50:57.175Z,100840
2017-10-23T06:53:27.387Z,100840
2017-10-23T06:55:57.312Z,100848
2017-10-23T06:58:26.580Z,100844
2017-10-23T07:00:56.874Z,100847
2017-10-23T07:03:26.079Z,100850
2017-10-23T07:05:56.217Z,100851
2017-10-23T07:08:25.497Z,100850
2017-10-23T07:10:54.718Z,100857
2017-10-23T07:13:23.888Z,100857
2017-10-23T07:15:54.214Z,100858
2017-10-23T07:18:23.643Z,100861
2017-10-23T07:20:53.903Z,100859
2017-10-23T07:23:23.327Z,100856
2017-10-23T07:25:52.527Z,100854
2017-10-23T07:28:21.949Z,100851
2017-10-23T07:30:51.636Z,100855
2017-10-23T07:33:21.282Z,100855
2017-10-23T07:35:50.429Z,100858
2017-10-23T07:38:22.016Z,100857
2017-10-23T07:40:52.153Z,100857
2017-10-23T07:43:21.731Z,100864
2017-10-23T07:45:51.083Z,100864
2017-10-23T07:48:20.258Z,100862
2017-10-23T07:50:49.422Z,100870
2017-10-23T07:53:18.613Z,100869
2017-10-23T07:55:47.798Z,100872
2017-10-23T07:58:17.183Z,100874
2017-10-23T08:00:46.358Z,100876
2017-10-23T08:03:17.183Z,100878
2017-10-23T08:05:46.979Z,100884
2017-10-23T08:08:16.244Z,100881
2017-10-23T08:10:46.956Z,100885
2017-10-23T08:13:16.914Z,100882
2017-10-23T08:15:46.475Z,100886
2017-10-23T08:18:15.840Z,100888
2017-10-23T08:20:47.295Z,100885
2017-10-23T08:23:17.806Z,100892
2017-10-23T08:25:47.921Z,100895
2017-10-23T08:28:17.172Z,100895
2017-10-23T08:30:46.462Z,100903
2017-10-23T08:33:16.628Z,100905
2017-10-23T08:35:47.608Z,100902
2017-10-23T08:38:17.248Z,100907
2017-10-23T08:40:46.551Z,100907
2017-10-23T08:43:16.638Z,100909
2017-10-23T08:45:46.871Z,100915
2017-10-23T08:48:16.085Z,100917
2017-10-23T08:50:45.870Z,100920
2017-10-23T08:53:14.995Z,100920
2017-10-23T08:55:44.240Z,100922
2017-10-23T08:58:15.227Z,100922
2017-10-23T09:00:45.143Z,100927
2017-10-23T09:03:15.186Z,100922
2017-10-23T09:05:44.270Z,100925
2017-10-23T09:08:13.502Z,100927
2017-10-23T09:10:43.763Z,100931
2017-10-23T09:13:12.957Z,100932
2017-10-23T09:15:44.703Z,100930
2017-10-23T09:18:14.639Z,100934
2017-10-23T09:20:45.294Z,100936
2017-10-23T09:23:14.593Z,100936
2017-10-23T09:25:44.446Z,100930
2017-10-23T09:28:14.058Z,100939
2017-10-23T09:30:43.182Z,100939
2017-10-23T09:33:12.335Z,100943
2017-10-23T09:35:41.726Z,100944
2017-10-23T09:38:11.238Z,100949
2017-10-23T09:40:40.402Z,100952
2017-10-23T09:43:10.438Z,100955
2017-10-23T09:45:39.830Z,100956
2017-10-23T09:48:09.194Z,100953
2017-10-23T09:50:38.493Z,100956
2017-10-23T09:53:08.860Z,100957
2017-10-23T09:55:38.016Z,100959
2017-10-23T09:58:07.371Z,100963
2017-10-23T10:00:36.955Z,100965
2017-10-23T10:03:06.913Z,100965
2017-10-23T10:05:36.956Z,100969
2017-10-23T10:08:06.448Z,100969
2017-10-23T10:10:35.653Z,100973
2017-10-23T10:13:04.879Z,100974
2017-10-23T10:15:34.192Z,100976
2017-10-23T10:18:03.944Z,100978
2017-10-23T10:20:33.370Z,100984
2017-10-23T10:23:02.711Z,100986
2017-10-23T10:25:31.997Z,100988
2017-10-23T10:28:01.379Z,100992
2017-10-23T10:30:31.923Z,100992
2017-10-23T10:33:01.158Z,100997
2017-10-23T10:35:31.337Z,101002
2017-10-23T10:38:00.570Z,101002
2017-10-23T10:40:30.701Z,101003
2017-10-23T10:43:00.066Z,101008
2017-10-23T10:45:29.798Z,101012
2017-10-23T10:47:59.522Z,101017
2017-10-23T10:50:29.502Z,101015
2017-10-23T10:52:58.916Z,101009
2017-10-23T10:55:29.044Z,101020
2017-10-23T10:57:59.503Z,101015
2017-10-23T11:00:29.607Z,101016
2017-10-23T11:03:01.571Z,101020
2017-10-23T11:05:31.712Z,101025
2017-10-23T11:08:00.923Z,101021
2017-10-23T11:10:30.321Z,101020
2017-10-23T11:13:00.016Z,101024
2017-10-23T11:15:32.095Z,101025
2017-10-23T11:18:01.693Z,101026
2017-10-23T11:20:31.115Z,101030
2017-10-23T11:23:01.393Z,101029
2017-10-23T11:25:30.747Z,101033
2017-10-23T11:27:59.912Z,101034
2017-10-23T11:30:30.059Z,101035
2017-10-23T11:33:01.151Z,101039
2017-10-23T11:35:30.514Z,101038
2017-10-23T11:37:59.864Z,101037
2017-10-23T11:40:32.382Z,101035
2017-10-23T11:43:01.724Z,101037
2017-10-23T11:45:32.108Z,101036
2017-10-23T11:48:01.523Z,101032
2017-10-23T11:50:31.602Z,101038
2017-10-23T11:53:01.079Z,101044
2017-10-23T11:55:32.425Z,101056
2017-10-23T11:58:02.364Z,101050
2017-10-23T12:00:31.670Z,101062
2017-10-23T12:03:01.174Z,101064
2017-10-23T12:05:30.357Z,101060
2017-10-23T12:08:00.128Z,101063
2017-10-23T12:10:30.405Z,101059
2017-10-23T12:12:59.676Z,101056
2017-10-23T12:15:28.925Z,101060
2017-10-23T12:17:58.084Z,101060
2017-10-23T12:20:27.859Z,101066
2017-10-23T12:22:57.026Z,101073
2017-10-23T12:25:27.663Z,101070
2017-10-23T12:27:56.838Z,101072
2017-10-23T12:30:27.441Z,101073
2017-10-23T12:32:57.961Z,101074
2017-10-23T12:35:27.057Z,101074
2017-10-23T12:37:56.249Z,101069
2017-10-23T12:40:27.329Z,101070
2017-10-23T12:42:57.388Z,101076
2017-10-23T12:45:27.948Z,101076
2017-10-23T12:47:58.086Z,101084
2017-10-23T12:50:30.350Z,101086
2017-10-23T12:52:59.632Z,101084
2017-10-23T12:55:30.153Z,101089
2017-10-23T12:58:00.391Z,101080
2017-10-23T13:00:30.366Z,101089
2017-10-23T13:02:59.628Z,101093
2017-10-23T13:05:30.694Z,101099
2017-10-23T13:08:01.962Z,101106
2017-10-23T13:10:32.941Z,101104
2017-10-23T13:13:03.117Z,101112
2017-10-23T13:15:32.423Z,101117
2017-10-23T13:18:02.941Z,101124
2017-10-23T13:20:34.524Z,101119
2017-10-23T13:23:04.590Z,101121
2017-10-23T13:25:33.767Z,101117
2017-10-23T13:28:02.973Z,101117
2017-10-23T13:30:33.213Z,101119
2017-10-23T13:33:02.544Z,101117
2017-10-23T13:35:31.767Z,101119
2017-10-23T13:38:02.277Z,101126
2017-10-23T13:40:32.327Z,101133
2017-10-23T13:43:01.648Z,101147
2017-10-23T13:45:31.345Z,101139
2017-10-23T13:48:00.732Z,101145
2017-10-23T13:50:29.891Z,101148
2017-10-23T13:53:01.745Z,101152
2017-10-23T13:55:30.885Z,101151
2017-10-23T13:58:03.526Z,101154
2017-10-23T14:00:33.838Z,101154
2017-10-23T14:03:05.487Z,101163
2017-10-23T14:05:34.610Z,101169
2017-10-23T14:08:03.759Z,101171
2017-10-23T14:10:33.011Z,101179
2017-10-23T14:13:02.741Z,101185
2017-10-23T14:15:32.095Z,101186
2017-10-23T14:18:01.510Z,101185
2017-10-23T14:20:30.936Z,101197
2017-10-23T14:23:00.338Z,101207
2017-10-23T14:25:31.260Z,101217
2017-10-23T14:28:01.874Z,101224
2017-10-23T14:30:31.262Z,101230
2017-10-23T14:33:00.880Z,101228
2017-10-23T14:35:30.140Z,101227
2017-10-23T14:38:00.987Z,101226
2017-10-23T14:40:32.181Z,101223
2017-10-23T14:43:02.217Z,101236
2017-10-23T14:45:31.440Z,101235
2017-10-23T14:48:01.811Z,101239
2017-10-23T14:50:31.154Z,101239
2017-10-23T14:53:00.423Z,101238
2017-10-23T14:55:29.983Z,101243
2017-10-23T14:57:59.749Z,101246
2017-10-23T15:00:29.914Z,101251
2017-10-23T15:03:00.385Z,101256
2017-10-23T15:05:29.692Z,101252
2017-10-23T15:07:58.828Z,101261
2017-10-23T15:10:27.960Z,101261
2017-10-23T15:12:57.148Z,101259
2017-10-23T15:15:26.258Z,101264
2017-10-23T15:17:55.398Z,101266
2017-10-23T15:20:25.259Z,101271
2017-10-23T15:22:54.381Z,101272
2017-10-23T15:25:23.664Z,101281
2017-10-23T15:27:53.576Z,101284
2017-10-23T15:30:23.490Z,101289
2017-10-23T15:32:52.970Z,101291
2017-10-23T15:35:22.116Z,101294
2017-10-23T15:37:51.212Z,101305
2017-10-23T15:40:23.130Z,101308
2017-10-23T15:42:52.989Z,101311
2017-10-23T15:45:24.070Z,101314
2017-10-23T15:47:53.569Z,101312
2017-10-23T15:50:22.649Z,101317
2017-10-23T15:52:52.810Z,101320
2017-10-23T15:55:22.002Z,101323
2017-10-23T15:57:51.714Z,101329
2017-10-23T16:00:21.622Z,101330
2017-10-23T16:02:51.900Z,101334
2017-10-23T16:05:21.625Z,101343
2017-10-23T16:07:51.507Z,101345
2017-10-23T16:10:22.444Z,101346
2017-10-23T16:12:51.522Z,101356
2017-10-23T16:15:22.299Z,101357
2017-10-23T16:17:51.490Z,101361
2017-10-23T16:20:20.606Z,101365
2017-10-23T16:22:49.705Z,101369
2017-10-23T16:25:20.012Z,101376
2017-10-23T16:27:49.202Z,101381
2017-10-23T16:30:19.714Z,101377
2017-10-23T16:32:49.235Z,101386
2017-10-23T16:35:19.115Z,101392
2017-10-23T16:37:48.299Z,101390
2017-10-23T16:40:17.805Z,101389
2017-10-23T16:42:47.282Z,101391
2017-10-23T16:45:17.209Z,101399
2017-10-23T16:47:48.588Z,101397
2017-10-23T16:50:18.974Z,101404
2017-10-23T16:52:48.745Z,101409
2017-10-23T16:55:20.425Z,101411
2017-10-23T16:57:54.037Z,101411
2017-10-23T17:00:24.654Z,101413
2017-10-23T17:02:55.797Z,101416
2017-10-23T17:05:25.955Z,101414
2017-10-23T17:07:55.431Z,101422
2017-10-23T17:10:25.960Z,101425
2017-10-23T17:12:55.445Z,101429
2017-10-23T17:15:24.577Z,101430
2017-10-23T17:17:55.661Z,101432
2017-10-23T17:20:29.263Z,101440
2017-10-23T17:23:00.617Z,101436
2017-10-23T17:25:30.215Z,101439
2017-10-23T17:28:01.186Z,101441
2017-10-23T17:30:33.125Z,101445
2017-10-23T17:33:02.629Z,101452
2017-10-23T17:35:33.166Z,101455
2017-10-23T17:38:02.422Z,101453
2017-10-23T17:40:31.756Z,101454
2017-10-23T18:59:03.246Z,101559
2017-10-23T19:01:35.348Z,101560
2017-10-23T19:04:04.754Z,101557
2017-10-23T19:06:34.432Z,101563
2017-10-23T19:09:03.773Z,101564
2017-10-23T19:11:34.116Z,101569
2017-10-23T19:14:03.451Z,101568
2017-10-23T19:16:33.538Z,101567
2017-10-23T19:19:03.689Z,101567
2017-10-23T19:21:33.978Z,101571
2017-10-23T19:24:03.295Z,101573
2017-10-23T19:26:33.790Z,101581
2017-10-23T19:29:03.027Z,101582
2017-10-23T19:31:32.223Z,101585
2017-10-23T19:34:01.541Z,101588
2017-10-23T19:36:30.818Z,101587
2017-10-23T19:39:00.034Z,101588
2017-10-23T19:41:29.404Z,101590
2017-10-23T19:44:00.671Z,101596
2017-10-23T19:46:30.067Z,101595
2017-10-23T19:48:59.822Z,101605
2017-10-23T19:51:29.036Z,101610
2017-10-23T19:53:58.661Z,101612
2017-10-23T19:56:29.207Z,101623
2017-10-23T19:58:58.512Z,101632
2017-10-23T20:01:28.548Z,101634
2017-10-23T20:03:58.166Z,101632
2017-10-23T20:06:28.264Z,101642
2017-10-23T20:08:58.221Z,101645
2017-10-23T20:11:27.583Z,101649
2017-10-23T20:13:56.746Z,101649
2017-10-23T20:16:25.902Z,101648
2017-10-23T20:18:56.708Z,101650
2017-10-23T20:21:30.026Z,101655
2017-10-23T20:24:01.064Z,101666
2017-10-23T20:26:30.521Z,101671
2017-10-23T20:28:59.868Z,101674
2017-10-23T20:31:29.997Z,101678
2017-10-23T20:33:59.387Z,101672
2017-10-23T20:36:28.876Z,101678
2017-10-23T20:38:59.748Z,101668
2017-10-23T20:41:28.899Z,101674
2017-10-23T20:44:00.584Z,101672
2017-10-23T20:46:29.952Z,101676
2017-10-23T20:48:59.243Z,101673
2017-10-23T20:51:28.442Z,101668
2017-10-23T20:53:58.686Z,101677
2017-10-23T20:56:27.922Z,101675
2017-10-23T20:58:58.663Z,101685
2017-10-23T21:01:28.867Z,101686
2017-10-23T21:03:58.173Z,101690
2017-10-23T21:06:27.737Z,101688
2017-10-23T21:08:57.983Z,101695
2017-10-23T21:11:27.630Z,101699
2017-10-23T21:13:57.644Z,101698
2017-10-23T21:16:28.541Z,101695
2017-10-23T21:18:59.147Z,101697
2017-10-23T21:21:28.307Z,101702
2017-10-23T21:23:57.481Z,101709
2017-10-23T21:26:29.924Z,101706
2017-10-23T21:28:59.120Z,101706
2017-10-23T21:31:28.257Z,101706
2017-10-23T21:33:57.415Z,101702
2017-10-23T21:36:28.234Z,101699
2017-10-23T21:38:59.826Z,101711
2017-10-23T21:41:28.959Z,101710
2017-10-23T21:43:58.068Z,101719
2017-10-23T21:46:45.157Z,101726
2017-10-23T21:49:14.339Z,101719
2017-10-23T21:51:43.460Z,101722
2017-10-23T21:54:12.635Z,101723
2017-10-23T21:56:41.743Z,101728
2017-10-23T21:59:10.981Z,101732
2017-10-23T22:01:41.456Z,101737
2017-10-23T22:04:10.806Z,101744
2017-10-23T22:06:39.920Z,101743
2017-10-23T22:09:10.084Z,101743
2017-10-23T22:11:39.830Z,101726
2017-10-23T22:14:10.772Z,101730
2017-10-23T22:16:42.623Z,101730
2017-10-23T22:19:11.736Z,101731
2017-10-23T22:21:40.976Z,101734
2017-10-23T22:24:11.745Z,101737
2017-10-23T22:26:40.947Z,101740
2017-10-23T22:29:11.230Z,101731
2017-10-23T22:31:41.205Z,101735
2017-10-23T22:34:10.558Z,101740
2017-10-23T22:36:39.724Z,101739
2017-10-23T22:39:10.171Z,101736
2017-10-23T22:41:39.325Z,101735
2017-10-23T22:44:08.968Z,101736
2017-10-23T22:46:39.297Z,101737
2017-10-23T22:49:09.284Z,101739
2017-10-23T22:51:39.824Z,101743
2017-10-23T22:54:09.121Z,101745
2017-10-23T22:56:38.384Z,101746
2017-10-23T22:59:07.660Z,101748
2017-10-23T23:01:39.007Z,101750
2017-10-23T23:04:08.920Z,101751
2017-10-23T23:06:38.901Z,101749
2017-10-23T23:09:09.002Z,101758
2017-10-23T23:11:38.415Z,101754
2017-10-23T23:14:07.621Z,101761
2017-10-23T23:16:37.310Z,101766
2017-10-23T23:19:06.859Z,101764
2017-10-23T23:21:36.997Z,101773
2017-10-23T23:24:06.756Z,101775
2017-10-23T23:26:36.088Z,101775
2017-10-23T23:29:05.401Z,101777
2017-10-23T23:31:34.770Z,101772
2017-10-23T23:34:04.282Z,101761
2017-10-23T23:36:33.791Z,101755
2017-10-23T23:39:03.995Z,101757
2017-10-23T23:41:34.124Z,101750
2017-10-23T23:44:03.391Z,101752
2017-10-23T23:46:33.090Z,101753
2017-10-23T23:49:02.340Z,101757
2017-10-23T23:51:31.688Z,101754
2017-10-23T23:54:03.703Z,101758
2017-10-23T23:56:32.934Z,101761
2017-10-23T23:59:02.532Z,101759
